createdAt,value
2018-04-14T00:00:28.017Z,39.33
2018-04-14T00:03:30.092Z,40.30
2018-04-14T00:06:31.430Z,39.23
2018-04-14T00:09:32.790Z,39.10
2018-04-14T00:12:34.082Z,37.77
2018-04-14T00:15:35.430Z,37.90
2018-04-14T00:18:36.875Z,38.27
2018-04-14T00:21:38.898Z,39.40
2018-04-14T00:24:40.211Z,41.03
2018-04-14T00:27:41.602Z,39.00
2018-04-14T00:30:42.910Z,38.80
2018-04-14T00:33:44.168Z,41.80
2018-04-14T00:36:45.473Z,40.73
2018-04-14T00:39:47.502Z,40.00
2018-04-14T00:42:48.827Z,43.80
2018-04-14T00:45:50.960Z,41.70
2018-04-14T00:48:52.478Z,40.27
2018-04-14T00:51:53.748Z,44.30
2018-04-14T00:54:55.831Z,39.40
2018-04-14T00:57:57.919Z,43.07
2018-04-14T01:01:00.009Z,44.07
2018-04-14T01:04:01.347Z,45.30
2018-04-14T01:07:03.455Z,44.37
2018-04-14T01:10:04.825Z,43.40
2018-04-14T01:13:06.179Z,43.87
2018-04-14T01:16:07.497Z,44.03
2018-04-14T01:19:08.810Z,47.13
2018-04-14T01:22:10.117Z,42.43
2018-04-14T01:25:11.431Z,44.17
2018-04-14T01:28:13.496Z,45.33
2018-04-14T01:31:14.794Z,42.43
2018-04-14T01:34:16.066Z,45.37
2018-04-14T01:37:17.358Z,45.60
2018-04-14T01:40:18.840Z,42.67
2018-04-14T01:43:20.198Z,47.00
2018-04-14T01:46:21.556Z,43.50
2018-04-14T01:49:22.889Z,42.03
2018-04-14T01:52:24.323Z,44.43
2018-04-14T01:55:26.410Z,43.07
2018-04-14T01:58:28.649Z,40.97
2018-04-14T02:01:29.957Z,44.30
2018-04-14T02:04:31.290Z,42.17
2018-04-14T02:07:32.605Z,44.10
2018-04-14T02:10:33.924Z,43.20
2018-04-14T02:13:35.306Z,43.93
2018-04-14T02:16:36.659Z,44.27
2018-04-14T02:19:37.997Z,41.50
2018-04-14T02:22:39.361Z,40.80
2018-04-14T02:25:40.695Z,44.20
2018-04-14T02:28:42.755Z,45.80
2018-04-14T02:31:44.079Z,43.63
2018-04-14T02:34:46.132Z,43.37
2018-04-14T02:37:47.404Z,45.87
2018-04-14T02:43:56.834Z,46.27
2018-04-14T02:46:58.133Z,42.33
2018-04-14T02:50:00.215Z,47.53
2018-04-14T02:53:02.277Z,48.03
2018-04-14T02:56:03.654Z,45.53
2018-04-14T02:59:05.717Z,46.03
2018-04-14T03:02:07.136Z,47.70
2018-04-14T03:05:08.505Z,46.20
2018-04-14T03:08:09.841Z,47.07
2018-04-14T03:11:11.928Z,46.60
2018-04-14T03:14:13.971Z,49.17
2018-04-14T03:17:15.255Z,48.23
2018-04-14T03:20:16.572Z,47.20
2018-04-14T03:23:17.886Z,49.83
2018-04-14T03:26:19.351Z,51.13
2018-04-14T03:29:20.652Z,46.60
2018-04-14T03:32:22.072Z,45.87
2018-04-14T03:35:23.422Z,49.70
2018-04-14T03:38:24.841Z,49.20
2018-04-14T03:41:26.202Z,46.53
2018-04-14T03:44:28.382Z,50.30
2018-04-14T03:47:30.062Z,49.27
2018-04-14T03:50:32.112Z,48.70
2018-04-14T03:53:33.434Z,48.57
2018-04-14T03:56:34.728Z,47.87
2018-04-14T03:59:36.058Z,51.20
2018-04-14T04:02:37.403Z,49.33
2018-04-14T04:05:38.760Z,49.10
2018-04-14T04:08:40.858Z,48.83
2018-04-14T04:11:42.172Z,50.10
2018-04-14T04:14:43.455Z,47.63
2018-04-14T04:17:44.759Z,45.57
2018-04-14T04:21:04.479Z,46.47
2018-04-14T04:24:24.564Z,47.37
2018-04-14T04:27:25.895Z,48.67
2018-04-14T04:30:27.968Z,48.67
2018-04-14T04:33:29.276Z,48.10
2018-04-14T04:36:30.595Z,45.63
2018-04-14T04:39:31.967Z,47.30
2018-04-14T04:42:34.026Z,48.77
2018-04-14T04:45:35.456Z,45.17
2018-04-14T04:48:36.776Z,48.40
2018-04-14T04:51:38.084Z,47.90
2018-04-14T04:54:39.409Z,46.70
2018-04-14T04:57:41.498Z,47.00
2018-04-14T05:00:43.608Z,47.17
2018-04-14T05:03:44.884Z,44.37
2018-04-14T05:06:46.225Z,44.40
2018-04-14T05:09:48.281Z,47.10
2018-04-14T05:12:49.720Z,47.10
2018-04-14T05:15:51.339Z,44.77
2018-04-14T05:18:53.410Z,44.97
2018-04-14T05:21:54.723Z,47.03
2018-04-14T05:24:56.039Z,46.47
2018-04-14T05:27:57.543Z,46.10
2018-04-14T05:30:58.870Z,44.47
2018-04-14T05:34:00.182Z,45.40
2018-04-14T05:37:01.531Z,44.83
2018-04-14T05:40:02.892Z,48.43
2018-04-14T05:43:04.285Z,47.60
2018-04-14T05:46:05.657Z,50.67
2018-04-14T05:49:07.061Z,57.20
2018-04-14T05:55:16.483Z,58.03
2018-04-14T05:58:17.779Z,58.37
2018-04-14T06:01:19.107Z,55.10
2018-04-14T06:04:20.428Z,56.70
2018-04-14T06:07:21.749Z,56.40
2018-04-14T06:10:23.088Z,62.00
2018-04-14T06:13:25.190Z,59.63
2018-04-14T06:16:26.527Z,62.13
2018-04-14T06:19:27.880Z,63.80
2018-04-14T06:22:29.250Z,63.37
2018-04-14T06:25:30.622Z,64.87
2018-04-14T06:28:31.986Z,61.97
2018-04-14T06:31:33.281Z,61.77
2018-04-14T06:34:34.646Z,59.20
2018-04-14T06:37:35.982Z,58.50
2018-04-14T06:40:38.100Z,61.83
2018-04-14T06:43:39.453Z,59.50
2018-04-14T06:46:40.795Z,56.70
2018-04-14T06:49:42.179Z,58.90
2018-04-14T06:52:44.269Z,56.47
2018-04-14T06:55:45.588Z,60.37
2018-04-14T06:58:46.879Z,57.40
2018-04-14T07:01:48.942Z,55.87
2018-04-14T07:04:50.316Z,57.37
2018-04-14T07:07:51.641Z,53.33
2018-04-14T07:10:52.984Z,57.37
2018-04-14T07:13:54.334Z,53.60
2018-04-14T07:16:56.448Z,56.50
2018-04-14T07:19:57.803Z,53.63
2018-04-14T07:22:59.147Z,56.50
2018-04-14T07:26:01.208Z,55.57
2018-04-14T07:29:02.520Z,57.17
2018-04-14T07:32:03.887Z,55.03
2018-04-14T07:35:05.229Z,59.53
2018-04-14T07:38:07.306Z,60.10
2018-04-14T07:41:09.440Z,57.60
2018-04-14T07:44:10.786Z,56.83
2018-04-14T07:47:12.158Z,57.87
2018-04-14T07:50:13.544Z,52.23
2018-04-14T07:53:14.913Z,52.63
2018-04-14T07:56:16.255Z,48.10
2018-04-14T07:59:17.634Z,47.70
2018-04-14T08:02:18.979Z,48.20
2018-04-14T08:05:20.340Z,48.27
2018-04-14T08:08:21.704Z,44.03
2018-04-14T08:11:23.078Z,44.90
2018-04-14T08:14:24.427Z,44.50
2018-04-14T08:17:25.800Z,49.00
2018-04-14T08:20:27.162Z,47.17
2018-04-14T08:23:28.529Z,51.80
2018-04-14T08:26:29.904Z,44.50
2018-04-14T08:29:31.234Z,46.40
2018-04-14T08:32:33.314Z,48.47
2018-04-14T08:35:35.409Z,46.97
2018-04-14T08:38:37.554Z,44.70
2018-04-14T08:41:38.922Z,43.60
2018-04-14T08:44:40.347Z,50.07
2018-04-14T08:47:41.718Z,48.77
2018-04-14T08:50:43.097Z,47.57
2018-04-14T08:53:44.539Z,47.13
2018-04-14T08:56:45.908Z,47.50
2018-04-14T08:59:47.249Z,47.43
2018-04-14T09:02:49.311Z,46.30
2018-04-14T09:05:50.659Z,43.93
2018-04-14T09:08:51.983Z,46.90
2018-04-14T09:11:53.400Z,46.13
2018-04-14T09:14:54.731Z,44.00
2018-04-14T09:17:56.099Z,43.57
2018-04-14T09:20:57.462Z,41.53
2018-04-14T09:23:58.790Z,42.90
2018-04-14T09:27:00.915Z,40.83
2018-04-14T09:30:02.310Z,40.10
2018-04-14T09:33:03.658Z,43.20
2018-04-14T09:36:05.058Z,41.33
2018-04-14T09:39:07.177Z,40.17
2018-04-14T09:42:08.607Z,41.17
2018-04-14T09:45:10.025Z,37.30
2018-04-14T09:48:18.398Z,40.17
2018-04-14T09:51:19.742Z,40.03
2018-04-14T09:54:21.847Z,42.77
2018-04-14T09:57:23.203Z,41.17
2018-04-14T10:00:26.417Z,42.17
2018-04-14T10:03:27.792Z,43.37
2018-04-14T10:06:29.117Z,41.40
2018-04-14T10:09:30.523Z,42.07
2018-04-14T10:12:31.958Z,44.00
2018-04-14T10:15:33.325Z,47.37
2018-04-14T10:18:34.695Z,43.80
2018-04-14T10:21:36.091Z,47.27
2018-04-14T10:24:38.217Z,45.93
2018-04-14T10:27:39.629Z,49.30
2018-04-14T10:30:41.035Z,45.40
2018-04-14T10:33:42.393Z,47.77
2018-04-14T10:36:44.465Z,44.40
2018-04-14T10:39:46.597Z,46.20
2018-04-14T10:42:48.004Z,44.50
2018-04-14T10:45:49.342Z,44.80
2018-04-14T10:48:50.754Z,44.00
2018-04-14T10:51:52.126Z,43.37
2018-04-14T10:54:53.505Z,45.53
2018-04-14T10:57:54.913Z,45.30
2018-04-14T11:00:56.308Z,48.00
2018-04-14T11:03:58.419Z,49.07
2018-04-14T11:06:59.792Z,48.77
2018-04-14T11:10:01.140Z,46.97
2018-04-14T11:13:03.260Z,46.53
2018-04-14T11:16:04.634Z,43.30
2018-04-14T11:19:06.008Z,45.80
2018-04-14T11:22:07.371Z,45.90
2018-04-14T11:25:08.752Z,42.93
2018-04-14T11:28:10.136Z,44.60
2018-04-14T11:31:12.246Z,44.13
2018-04-14T11:34:13.614Z,48.47
2018-04-14T11:37:15.008Z,42.90
2018-04-14T11:40:16.343Z,46.33
2018-04-14T11:43:17.761Z,46.07
2018-04-14T11:46:19.210Z,43.40
2018-04-14T11:49:20.640Z,42.07
2018-04-14T11:52:22.056Z,43.20
2018-04-14T11:55:23.438Z,44.07
2018-04-14T11:58:25.557Z,41.00
2018-04-14T12:01:27.794Z,41.00
2018-04-14T12:04:29.222Z,41.30
2018-04-14T12:07:30.624Z,40.30
2018-04-14T12:10:31.989Z,38.33
2018-04-14T12:13:33.377Z,37.47
2018-04-14T12:16:34.746Z,38.40
2018-04-14T12:19:36.149Z,38.73
2018-04-14T12:22:37.564Z,36.87
2018-04-14T12:25:38.960Z,36.13
2018-04-14T12:28:41.096Z,35.93
2018-04-14T12:31:42.475Z,38.33
2018-04-14T12:34:43.841Z,38.50
2018-04-14T12:37:45.227Z,37.67
2018-04-14T12:40:46.624Z,34.83
2018-04-14T12:43:47.995Z,34.53
2018-04-14T12:46:49.380Z,35.07
2018-04-14T12:49:50.849Z,32.33
2018-04-14T12:52:52.274Z,34.17
2018-04-14T12:55:54.437Z,32.57
2018-04-14T12:58:55.837Z,33.30
2018-04-14T13:01:57.300Z,31.33
2018-04-14T13:04:58.677Z,33.13
2018-04-14T13:08:00.104Z,29.03
2018-04-14T13:11:01.529Z,31.57
2018-04-14T13:14:02.914Z,28.20
2018-04-14T13:17:04.366Z,31.37
2018-04-14T13:20:05.794Z,29.20
2018-04-14T13:23:07.902Z,28.77
2018-04-14T13:26:09.342Z,25.70
2018-04-14T13:29:11.454Z,26.47
2018-04-14T13:32:12.835Z,26.50
2018-04-14T13:35:14.230Z,25.07
2018-04-14T13:38:15.586Z,25.10
2018-04-14T13:44:25.078Z,27.47
2018-04-14T13:47:26.473Z,25.60
2018-04-14T13:50:28.605Z,24.67
2018-04-14T13:53:30.002Z,23.43
2018-04-14T13:56:31.392Z,23.67
2018-04-14T13:59:33.506Z,24.03
2018-04-14T14:02:34.985Z,23.57
2018-04-14T14:05:36.432Z,23.93
2018-04-14T14:08:37.918Z,24.73
2018-04-14T14:11:39.317Z,22.13
2018-04-14T14:14:40.783Z,21.03
2018-04-14T14:17:42.185Z,23.30
2018-04-14T14:20:44.310Z,23.67
2018-04-14T14:23:45.702Z,21.57
2018-04-14T14:26:47.145Z,23.70
2018-04-14T14:29:48.552Z,23.07
2018-04-14T14:32:49.960Z,22.37
2018-04-14T14:35:51.384Z,19.63
2018-04-14T14:38:52.810Z,20.93
2018-04-14T14:41:54.183Z,14.67
2018-04-14T14:44:55.610Z,15.17
2018-04-14T14:47:56.998Z,14.90
2018-04-14T14:50:58.455Z,15.37
2018-04-14T14:53:59.852Z,16.80
2018-04-14T14:57:01.259Z,15.43
2018-04-14T15:00:02.699Z,15.47
2018-04-14T15:03:04.217Z,14.80
2018-04-14T15:06:05.616Z,15.93
2018-04-14T15:09:07.064Z,13.73
2018-04-14T15:12:08.432Z,13.80
2018-04-14T15:15:09.860Z,12.03
2018-04-14T15:18:11.249Z,13.30
2018-04-14T15:21:13.353Z,11.90
2018-04-14T15:24:14.764Z,15.30
2018-04-14T15:27:16.207Z,15.40
2018-04-14T15:30:17.576Z,15.13
2018-04-14T15:33:18.976Z,17.30
2018-04-14T15:36:20.351Z,17.63
2018-04-14T15:39:22.480Z,21.00
2018-04-14T15:42:23.833Z,20.60
2018-04-14T15:45:25.221Z,19.20
2018-04-14T15:48:26.629Z,20.97
2018-04-14T15:51:28.026Z,20.47
2018-04-14T15:54:29.357Z,22.60
2018-04-14T15:57:30.753Z,21.30
2018-04-14T16:00:32.112Z,19.60
2018-04-14T16:03:34.222Z,20.80
2018-04-14T16:06:35.565Z,18.80
2018-04-14T16:09:37.007Z,24.53
2018-04-14T16:12:39.111Z,26.40
2018-04-14T16:15:40.472Z,21.60
2018-04-14T16:18:42.597Z,22.50
2018-04-14T16:21:43.967Z,21.37
2018-04-14T16:24:45.305Z,23.20
2018-04-14T16:27:46.678Z,22.30
2018-04-14T16:30:48.070Z,21.50
2018-04-14T16:33:49.456Z,20.67
2018-04-14T16:36:50.802Z,22.37
2018-04-14T16:39:52.201Z,19.40
2018-04-14T16:42:53.586Z,20.87
2018-04-14T16:45:54.933Z,19.13
2018-04-14T16:48:57.038Z,17.60
2018-04-14T16:51:58.424Z,21.03
2018-04-14T16:54:59.845Z,18.60
2018-04-14T16:58:01.936Z,19.80
2018-04-14T17:01:04.079Z,19.30
2018-04-14T17:04:05.484Z,19.27
2018-04-14T17:07:07.573Z,19.07
2018-04-14T17:10:09.667Z,17.63
2018-04-14T17:13:11.788Z,16.80
2018-04-14T17:16:13.100Z,17.80
2018-04-14T17:19:15.154Z,18.87
2018-04-14T17:22:16.520Z,22.20
2018-04-14T17:25:17.919Z,24.97
2018-04-14T17:28:19.257Z,28.37
2018-04-14T17:31:20.630Z,34.10
2018-04-14T17:34:21.950Z,34.23
2018-04-14T17:37:23.305Z,31.80
2018-04-14T17:40:24.674Z,32.50
2018-04-14T17:43:26.029Z,31.93
2018-04-14T17:46:27.403Z,33.07
2018-04-14T17:49:28.755Z,32.47
2018-04-14T17:52:30.855Z,30.27
2018-04-14T17:55:32.215Z,33.30
2018-04-14T17:58:33.978Z,30.07
2018-04-14T18:01:36.039Z,32.07
2018-04-14T18:04:38.139Z,29.87
2018-04-14T18:07:40.249Z,28.67
2018-04-14T18:10:41.617Z,31.30
2018-04-14T18:13:42.944Z,29.17
2018-04-14T18:16:45.037Z,30.47
2018-04-14T18:19:47.125Z,32.17
2018-04-14T18:22:48.444Z,33.03
2018-04-14T18:25:49.755Z,32.20
2018-04-14T18:28:51.115Z,31.83
2018-04-14T18:31:53.181Z,30.70
2018-04-14T18:34:55.276Z,31.43
2018-04-14T18:37:57.363Z,31.60
2018-04-14T18:40:59.424Z,32.93
2018-04-14T18:44:01.527Z,32.23
2018-04-14T18:47:02.906Z,35.73
2018-04-14T18:50:04.268Z,37.67
2018-04-14T18:53:05.584Z,37.67
2018-04-14T18:56:06.911Z,39.23
2018-04-14T18:59:08.251Z,34.67
2018-04-14T19:02:10.335Z,34.17
2018-04-14T19:05:11.730Z,38.87
2018-04-14T19:08:13.048Z,42.07
2018-04-14T19:11:15.093Z,38.90
2018-04-14T19:14:16.383Z,39.50
2018-04-14T19:17:17.705Z,41.73
2018-04-14T19:20:19.205Z,43.30
2018-04-14T19:23:20.743Z,39.00
2018-04-14T19:26:22.072Z,40.20
2018-04-14T19:29:24.123Z,38.50
2018-04-14T19:32:26.050Z,38.23
2018-04-14T19:35:27.403Z,40.07
2018-04-14T19:38:29.440Z,37.07
2018-04-14T19:41:30.841Z,36.37
2018-04-14T19:44:32.162Z,38.20
2018-04-14T19:47:33.604Z,39.80
2018-04-14T19:50:34.917Z,40.27
2018-04-14T19:53:36.265Z,39.43
2018-04-14T19:56:37.601Z,41.70
2018-04-14T19:59:38.985Z,38.83
2018-04-14T20:02:40.282Z,40.00
2018-04-14T20:05:41.627Z,39.23
2018-04-14T20:08:42.943Z,38.67
2018-04-14T20:11:44.254Z,39.80
2018-04-14T20:14:45.542Z,40.10
2018-04-14T20:17:46.890Z,41.97
2018-04-14T20:20:48.215Z,38.70
2018-04-14T20:23:49.586Z,39.13
2018-04-14T20:26:50.873Z,41.30
2018-04-14T20:29:52.205Z,38.47
2018-04-14T20:32:53.656Z,39.97
2018-04-14T20:35:55.838Z,37.00
2018-04-14T20:38:58.291Z,38.73
2018-04-14T20:41:59.782Z,38.40
2018-04-14T20:45:01.081Z,38.30
2018-04-14T20:48:02.446Z,37.60
2018-04-14T20:51:03.741Z,40.27
2018-04-14T20:54:05.061Z,41.70
2018-04-14T20:57:07.076Z,49.63
2018-04-14T21:00:08.425Z,47.67
2018-04-14T21:03:09.684Z,42.80
2018-04-14T21:06:11.104Z,45.90
2018-04-14T21:09:12.466Z,47.30
2018-04-14T21:12:13.769Z,50.00
2018-04-14T21:15:15.797Z,47.87
2018-04-14T21:18:17.146Z,49.90
2018-04-14T21:21:18.538Z,48.27
2018-04-14T21:24:20.045Z,47.80
2018-04-14T21:27:22.378Z,49.53
2018-04-14T21:30:23.734Z,45.40
2018-04-14T21:33:25.032Z,47.67
2018-04-14T21:36:26.346Z,48.80
2018-04-14T21:39:27.708Z,49.33
2018-04-14T21:42:28.979Z,49.20
2018-04-14T21:45:30.410Z,45.30
2018-04-14T21:48:31.758Z,48.30
2018-04-14T21:51:33.083Z,45.60
2018-04-14T21:54:34.852Z,45.20
2018-04-14T21:57:36.281Z,46.03
2018-04-14T22:00:37.634Z,45.40
2018-04-14T22:03:38.909Z,48.67
2018-04-14T22:06:40.202Z,48.07
2018-04-14T22:09:41.491Z,46.60
2018-04-14T22:12:42.863Z,46.37
2018-04-14T22:15:44.875Z,44.20
2018-04-14T22:18:46.187Z,44.50
2018-04-14T22:21:47.505Z,44.87
2018-04-14T22:24:49.044Z,44.90
2018-04-14T22:27:50.782Z,42.70
2018-04-14T22:30:52.887Z,46.73
2018-04-14T22:33:54.199Z,47.63
2018-04-14T22:36:55.539Z,49.90
2018-04-14T22:39:56.883Z,45.60
2018-04-14T22:42:58.220Z,46.10
2018-04-14T22:46:00.267Z,46.67
2018-04-14T22:49:01.638Z,46.00
2018-04-14T22:52:02.952Z,48.83
2018-04-14T22:55:04.350Z,48.50
2018-04-14T22:58:05.723Z,47.17
2018-04-14T23:01:07.085Z,47.90
2018-04-14T23:04:08.398Z,43.67
2018-04-14T23:07:09.684Z,46.23
2018-04-14T23:10:10.997Z,42.97
2018-04-14T23:13:12.289Z,47.30
2018-04-14T23:16:14.362Z,45.77
2018-04-14T23:19:16.380Z,44.97
2018-04-14T23:22:17.683Z,46.80
2018-04-14T23:25:19.332Z,46.27
2018-04-14T23:28:20.761Z,46.00
2018-04-14T23:31:22.845Z,45.57
2018-04-14T23:34:24.743Z,46.77
2018-04-14T23:37:26.041Z,46.07
2018-04-14T23:40:27.361Z,46.00
2018-04-14T23:43:28.660Z,45.83
2018-04-14T23:46:30.084Z,46.60
2018-04-14T23:49:31.393Z,45.83
2018-04-14T23:52:34.210Z,43.80
2018-04-14T23:55:35.754Z,43.37
2018-04-14T23:58:37.085Z,44.20
